sensor_id;sensor_type;location;lat;lon;timestamp;temperature;humidity
316;DHT22;14128;48.686;9.738;2023-04-15T00:00:06;3.10;1.00
316;DHT22;14128;48.686;9.738;2023-04-15T00:02:33;3.00;1.00
316;DHT22;14128;48.686;9.738;2023-04-15T00:05:01;3.00;1.00
316;DHT22;14128;48.686;9.738;2023-04-15T00:07:28;3.10;99.90
316;DHT22;14128;48.686;9.738;2023-04-15T00:09:56;3.00;99.90
316;DHT22;14128;48.686;9.738;2023-04-15T00:12:23;3.00;1.00
316;DHT22;14128;48.686;9.738;2023-04-15T00:14:49;3.00;99.90
316;DHT22;14128;48.686;9.738;2023-04-15T00:17:16;3.00;1.00
316;DHT22;14128;48.686;9.738;2023-04-15T00:19:43;3.00;10.80
316;DHT22;14128;48.686;9.738;2023-04-15T00:22:13;3.00;67.40
316;DHT22;14128;48.686;9.738;2023-04-15T00:24:39;3.00;1.00
316;DHT22;14128;48.686;9.738;2023-04-15T00:27:07;2.90;1.00
316;DHT22;14128;48.686;9.738;2023-04-15T00:29:34;2.90;99.90
316;DHT22;14128;48.686;9.738;2023-04-15T00:32:01;2.90;99.90
316;DHT22;14128;48.686;9.738;2023-04-15T00:34:28;2.90;1.00
316;DHT22;14128;48.686;9.738;2023-04-15T00:36:54;2.90;74.00
316;DHT22;14128;48.686;9.738;2023-04-15T00:39:22;2.90;1.00
316;DHT22;14128;48.686;9.738;2023-04-15T00:41:49;2.90;99.90
316;DHT22;14128;48.686;9.738;2023-04-15T00:44:16;2.90;99.90
316;DHT22;14128;48.686;9.738;2023-04-15T00:46:44;2.90;99.90
316;DHT22;14128;48.686;9.738;2023-04-15T00:49:12;2.90;99.90
316;DHT22;14128;48.686;9.738;2023-04-15T00:51:39;2.90;99.90
316;DHT22;14128;48.686;9.738;2023-04-15T00:54:06;2.90;99.90
316;DHT22;14128;48.686;9.738;2023-04-15T00:56:36;2.90;1.00
316;DHT22;14128;48.686;9.738;2023-04-15T00:59:04;2.90;99.90
316;DHT22;14128;48.686;9.738;2023-04-15T01:01:33;2.90;99.90
316;DHT22;14128;48.686;9.738;2023-04-15T01:04:01;2.90;99.90
316;DHT22;14128;48.686;9.738;2023-04-15T01:06:28;2.80;99.90
316;DHT22;14128;48.686;9.738;2023-04-15T01:08:56;2.80;99.90
316;DHT22;14128;48.686;9.738;2023-04-15T01:11:23;2.80;99.90
316;DHT22;14128;48.686;9.738;2023-04-15T01:13:51;2.80;99.90
316;DHT22;14128;48.686;9.738;2023-04-15T01:16:19;2.80;99.90
316;DHT22;14128;48.686;9.738;2023-04-15T01:18:46;2.80;99.90
316;DHT22;14128;48.686;9.738;2023-04-15T01:21:13;2.80;51.80
316;DHT22;14128;48.686;9.738;2023-04-15T01:23:39;2.80;99.90
316;DHT22;14128;48.686;9.738;2023-04-15T01:26:08;2.80;1.00
316;DHT22;14128;48.686;9.738;2023-04-15T01:28:35;2.80;99.90
316;DHT22;14128;48.686;9.738;2023-04-15T01:31:07;2.70;12.30
316;DHT22;14128;48.686;9.738;2023-04-15T01:33:34;2.70;1.00
316;DHT22;14128;48.686;9.738;2023-04-15T01:36:01;2.70;99.90
316;DHT22;14128;48.686;9.738;2023-04-15T01:38:29;2.70;99.90
316;DHT22;14128;48.686;9.738;2023-04-15T01:40:56;2.60;99.90
316;DHT22;14128;48.686;9.738;2023-04-15T01:43:25;2.50;99.90
316;DHT22;14128;48.686;9.738;2023-04-15T01:45:52;2.50;99.90
316;DHT22;14128;48.686;9.738;2023-04-15T01:48:19;2.40;1.00
316;DHT22;14128;48.686;9.738;2023-04-15T01:50:46;2.30;1.00
316;DHT22;14128;48.686;9.738;2023-04-15T01:53:13;2.20;1.00
316;DHT22;14128;48.686;9.738;2023-04-15T01:55:40;2.20;99.90
316;DHT22;14128;48.686;9.738;2023-04-15T01:58:07;2.10;99.90
316;DHT22;14128;48.686;9.738;2023-04-15T02:00:35;2.00;99.90
316;DHT22;14128;48.686;9.738;2023-04-15T02:03:02;2.00;99.90
316;DHT22;14128;48.686;9.738;2023-04-15T02:05:29;1.90;99.90
316;DHT22;14128;48.686;9.738;2023-04-15T02:07:56;1.80;45.20
316;DHT22;14128;48.686;9.738;2023-04-15T02:10:23;1.70;99.90
316;DHT22;14128;48.686;9.738;2023-04-15T02:12:50;1.60;1.00
316;DHT22;14128;48.686;9.738;2023-04-15T02:15:17;1.60;99.90
316;DHT22;14128;48.686;9.738;2023-04-15T02:17:45;1.50;99.90
316;DHT22;14128;48.686;9.738;2023-04-15T02:20:15;1.40;99.90
316;DHT22;14128;48.686;9.738;2023-04-15T02:22:42;1.40;99.90
316;DHT22;14128;48.686;9.738;2023-04-15T02:25:09;1.30;1.00
316;DHT22;14128;48.686;9.738;2023-04-15T02:27:36;1.30;1.00
316;DHT22;14128;48.686;9.738;2023-04-15T02:30:03;1.40;1.00
316;DHT22;14128;48.686;9.738;2023-04-15T02:32:31;1.30;99.90
316;DHT22;14128;48.686;9.738;2023-04-15T02:35:03;1.30;1.00
316;DHT22;14128;48.686;9.738;2023-04-15T02:37:30;1.30;1.00
316;DHT22;14128;48.686;9.738;2023-04-15T02:40:00;1.40;99.90
316;DHT22;14128;48.686;9.738;2023-04-15T02:42:26;1.40;99.90
316;DHT22;14128;48.686;9.738;2023-04-15T02:44:54;1.40;1.00
316;DHT22;14128;48.686;9.738;2023-04-15T02:47:22;1.40;99.90
316;DHT22;14128;48.686;9.738;2023-04-15T02:49:49;1.40;53.30
316;DHT22;14128;48.686;9.738;2023-04-15T02:52:17;1.50;99.90
316;DHT22;14128;48.686;9.738;2023-04-15T02:54:44;1.60;99.90
316;DHT22;14128;48.686;9.738;2023-04-15T02:57:11;1.70;99.90
316;DHT22;14128;48.686;9.738;2023-04-15T02:59:37;1.70;99.90
316;DHT22;14128;48.686;9.738;2023-04-15T03:02:05;1.70;99.90
316;DHT22;14128;48.686;9.738;2023-04-15T03:04:33;1.70;99.90
316;DHT22;14128;48.686;9.738;2023-04-15T03:07:00;1.70;1.00
316;DHT22;14128;48.686;9.738;2023-04-15T03:09:28;1.60;99.90
316;DHT22;14128;48.686;9.738;2023-04-15T03:11:55;1.70;99.90
316;DHT22;14128;48.686;9.738;2023-04-15T03:14:21;1.70;37.30
316;DHT22;14128;48.686;9.738;2023-04-15T03:16:48;1.70;99.90
316;DHT22;14128;48.686;9.738;2023-04-15T03:19:16;1.70;99.90
316;DHT22;14128;48.686;9.738;2023-04-15T03:21:43;1.70;99.90
316;DHT22;14128;48.686;9.738;2023-04-15T03:24:10;1.70;99.90
316;DHT22;14128;48.686;9.738;2023-04-15T03:26:38;1.70;99.90
316;DHT22;14128;48.686;9.738;2023-04-15T03:29:05;1.70;99.90
316;DHT22;14128;48.686;9.738;2023-04-15T03:31:31;1.70;99.90
316;DHT22;14128;48.686;9.738;2023-04-15T03:33:58;1.70;99.90
316;DHT22;14128;48.686;9.738;2023-04-15T03:36:25;1.70;99.90
316;DHT22;14128;48.686;9.738;2023-04-15T03:38:52;1.60;99.90
316;DHT22;14128;48.686;9.738;2023-04-15T03:41:19;1.70;99.90
316;DHT22;14128;48.686;9.738;2023-04-15T03:43:47;1.70;99.90
316;DHT22;14128;48.686;9.738;2023-04-15T03:46:16;1.60;99.90
316;DHT22;14128;48.686;9.738;2023-04-15T03:48:43;1.60;99.90
316;DHT22;14128;48.686;9.738;2023-04-15T03:51:10;1.60;99.90
316;DHT22;14128;48.686;9.738;2023-04-15T03:53:37;1.60;1.40
316;DHT22;14128;48.686;9.738;2023-04-15T03:56:04;1.60;1.40
316;DHT22;14128;48.686;9.738;2023-04-15T03:58:31;1.60;1.40
316;DHT22;14128;48.686;9.738;2023-04-15T04:00:59;1.60;1.40
316;DHT22;14128;48.686;9.738;2023-04-15T04:03:26;1.60;99.90
316;DHT22;14128;48.686;9.738;2023-04-15T04:05:52;1.60;1.40
316;DHT22;14128;48.686;9.738;2023-04-15T04:08:19;1.50;99.90
316;DHT22;14128;48.686;9.738;2023-04-15T04:10:46;1.50;99.90
316;DHT22;14128;48.686;9.738;2023-04-15T04:13:13;1.40;99.90
316;DHT22;14128;48.686;9.738;2023-04-15T04:15:40;1.40;1.40
316;DHT22;14128;48.686;9.738;2023-04-15T04:18:08;1.40;99.90
316;DHT22;14128;48.686;9.738;2023-04-15T04:20:35;1.30;1.40
316;DHT22;14128;48.686;9.738;2023-04-15T04:23:01;1.20;99.90
316;DHT22;14128;48.686;9.738;2023-04-15T04:25:28;1.20;1.40
316;DHT22;14128;48.686;9.738;2023-04-15T04:27:55;1.20;1.40
316;DHT22;14128;48.686;9.738;2023-04-15T04:30:22;1.20;1.40
316;DHT22;14128;48.686;9.738;2023-04-15T04:32:49;1.10;99.90
316;DHT22;14128;48.686;9.738;2023-04-15T04:35:17;1.10;99.90
316;DHT22;14128;48.686;9.738;2023-04-15T04:37:44;1.00;99.90
316;DHT22;14128;48.686;9.738;2023-04-15T04:40:11;0.90;99.90
316;DHT22;14128;48.686;9.738;2023-04-15T04:42:38;0.90;99.90
316;DHT22;14128;48.686;9.738;2023-04-15T04:45:06;0.90;1.40
316;DHT22;14128;48.686;9.738;2023-04-15T04:47:33;0.90;1.40
316;DHT22;14128;48.686;9.738;2023-04-15T04:50:00;0.90;99.90
316;DHT22;14128;48.686;9.738;2023-04-15T04:52:28;1.00;99.90
316;DHT22;14128;48.686;9.738;2023-04-15T04:54:55;1.00;1.40
316;DHT22;14128;48.686;9.738;2023-04-15T04:57:22;1.00;99.90
316;DHT22;14128;48.686;9.738;2023-04-15T04:59:48;1.20;1.40
316;DHT22;14128;48.686;9.738;2023-04-15T05:02:15;1.20;1.40
316;DHT22;14128;48.686;9.738;2023-04-15T05:04:42;1.20;99.90
316;DHT22;14128;48.686;9.738;2023-04-15T05:07:09;1.20;99.90
316;DHT22;14128;48.686;9.738;2023-04-15T05:09:37;1.20;99.90
316;DHT22;14128;48.686;9.738;2023-04-15T05:12:04;1.20;99.90
316;DHT22;14128;48.686;9.738;2023-04-15T05:14:32;1.20;1.40
316;DHT22;14128;48.686;9.738;2023-04-15T05:16:59;1.20;1.40
316;DHT22;14128;48.686;9.738;2023-04-15T05:19:26;1.20;1.40
316;DHT22;14128;48.686;9.738;2023-04-15T05:21:53;1.30;99.90
316;DHT22;14128;48.686;9.738;2023-04-15T05:24:20;1.30;1.40
316;DHT22;14128;48.686;9.738;2023-04-15T05:26:48;1.40;99.90
316;DHT22;14128;48.686;9.738;2023-04-15T05:29:15;1.40;99.90
316;DHT22;14128;48.686;9.738;2023-04-15T05:31:42;1.40;1.40
316;DHT22;14128;48.686;9.738;2023-04-15T05:34:09;1.40;1.40
316;DHT22;14128;48.686;9.738;2023-04-15T05:36:37;1.40;99.90
316;DHT22;14128;48.686;9.738;2023-04-15T05:39:03;1.50;99.90
316;DHT22;14128;48.686;9.738;2023-04-15T05:41:30;1.60;99.90
316;DHT22;14128;48.686;9.738;2023-04-15T05:43:58;1.60;99.90
316;DHT22;14128;48.686;9.738;2023-04-15T05:46:25;1.70;99.90
316;DHT22;14128;48.686;9.738;2023-04-15T05:48:52;1.80;99.90
316;DHT22;14128;48.686;9.738;2023-04-15T05:51:19;2.00;99.90
316;DHT22;14128;48.686;9.738;2023-04-15T05:53:46;2.20;1.40
316;DHT22;14128;48.686;9.738;2023-04-15T05:56:12;2.40;99.90
316;DHT22;14128;48.686;9.738;2023-04-15T05:58:39;2.70;99.90
316;DHT22;14128;48.686;9.738;2023-04-15T06:01:08;2.90;99.90
316;DHT22;14128;48.686;9.738;2023-04-15T06:03:35;3.20;99.90
316;DHT22;14128;48.686;9.738;2023-04-15T06:06:01;3.40;1.40
316;DHT22;14128;48.686;9.738;2023-04-15T06:08:28;3.60;1.40
316;DHT22;14128;48.686;9.738;2023-04-15T06:10:55;3.90;1.40
316;DHT22;14128;48.686;9.738;2023-04-15T06:13:24;4.00;99.90
316;DHT22;14128;48.686;9.738;2023-04-15T06:15:50;4.30;99.90
316;DHT22;14128;48.686;9.738;2023-04-15T06:18:19;4.50;1.40
316;DHT22;14128;48.686;9.738;2023-04-15T06:20:46;4.70;99.90
316;DHT22;14128;48.686;9.738;2023-04-15T06:23:12;5.00;99.90
316;DHT22;14128;48.686;9.738;2023-04-15T06:25:40;5.20;99.90
316;DHT22;14128;48.686;9.738;2023-04-15T06:28:06;5.40;1.00
316;DHT22;14128;48.686;9.738;2023-04-15T06:30:33;5.50;99.90
316;DHT22;14128;48.686;9.738;2023-04-15T06:33:01;5.70;99.90
316;DHT22;14128;48.686;9.738;2023-04-15T06:35:31;5.70;99.90
316;DHT22;14128;48.686;9.738;2023-04-15T06:37:58;5.70;1.00
316;DHT22;14128;48.686;9.738;2023-04-15T06:40:24;5.80;1.00
316;DHT22;14128;48.686;9.738;2023-04-15T06:42:52;5.80;99.90
316;DHT22;14128;48.686;9.738;2023-04-15T06:45:19;5.90;99.90
316;DHT22;14128;48.686;9.738;2023-04-15T06:47:46;6.20;1.00
316;DHT22;14128;48.686;9.738;2023-04-15T06:50:12;6.50;1.00
316;DHT22;14128;48.686;9.738;2023-04-15T06:52:41;6.80;54.30
316;DHT22;14128;48.686;9.738;2023-04-15T06:55:08;7.20;99.90
316;DHT22;14128;48.686;9.738;2023-04-15T06:57:35;7.50;75.80
316;DHT22;14128;48.686;9.738;2023-04-15T07:00:02;7.80;1.00
316;DHT22;14128;48.686;9.738;2023-04-15T07:02:30;8.10;99.90
316;DHT22;14128;48.686;9.738;2023-04-15T07:04:57;8.40;99.90
316;DHT22;14128;48.686;9.738;2023-04-15T07:07:23;8.60;99.90
316;DHT22;14128;48.686;9.738;2023-04-15T07:09:52;8.80;99.90
316;DHT22;14128;48.686;9.738;2023-04-15T07:12:19;8.90;99.90
316;DHT22;14128;48.686;9.738;2023-04-15T07:14:46;9.10;99.90
316;DHT22;14128;48.686;9.738;2023-04-15T07:17:13;9.20;32.40
316;DHT22;14128;48.686;9.738;2023-04-15T07:19:40;9.40;1.00
316;DHT22;14128;48.686;9.738;2023-04-15T07:22:07;9.50;1.00
316;DHT22;14128;48.686;9.738;2023-04-15T07:24:34;9.70;99.90
316;DHT22;14128;48.686;9.738;2023-04-15T07:27:02;9.90;1.00
316;DHT22;14128;48.686;9.738;2023-04-15T07:29:29;10.10;8.30
316;DHT22;14128;48.686;9.738;2023-04-15T07:31:56;10.40;99.90
316;DHT22;14128;48.686;9.738;2023-04-15T07:34:26;10.50;99.90
316;DHT22;14128;48.686;9.738;2023-04-15T07:36:53;10.80;99.90
316;DHT22;14128;48.686;9.738;2023-04-15T07:39:20;10.90;1.00
316;DHT22;14128;48.686;9.738;2023-04-15T07:41:47;11.10;1.00
316;DHT22;14128;48.686;9.738;2023-04-15T07:44:16;10.90;99.90
316;DHT22;14128;48.686;9.738;2023-04-15T07:46:42;10.90;99.90
316;DHT22;14128;48.686;9.738;2023-04-15T07:49:09;10.90;1.00
316;DHT22;14128;48.686;9.738;2023-04-15T07:51:36;10.70;8.10
316;DHT22;14128;48.686;9.738;2023-04-15T07:54:03;10.40;1.00
316;DHT22;14128;48.686;9.738;2023-04-15T07:56:30;10.20;1.00
316;DHT22;14128;48.686;9.738;2023-04-15T07:58:57;10.10;1.00
316;DHT22;14128;48.686;9.738;2023-04-15T08:01:25;10.00;99.90
316;DHT22;14128;48.686;9.738;2023-04-15T08:03:52;9.80;99.90
316;DHT22;14128;48.686;9.738;2023-04-15T08:06:19;9.70;99.90
316;DHT22;14128;48.686;9.738;2023-04-15T08:08:46;9.60;99.90
316;DHT22;14128;48.686;9.738;2023-04-15T08:11:13;9.60;99.90
316;DHT22;14128;48.686;9.738;2023-04-15T08:13:40;9.70;99.90
316;DHT22;14128;48.686;9.738;2023-04-15T08:16:16;9.80;99.90
316;DHT22;14128;48.686;9.738;2023-04-15T08:18:45;9.90;99.90
316;DHT22;14128;48.686;9.738;2023-04-15T08:21:12;10.10;99.90
316;DHT22;14128;48.686;9.738;2023-04-15T08:23:39;10.20;99.90
316;DHT22;14128;48.686;9.738;2023-04-15T08:26:07;10.40;99.90
316;DHT22;14128;48.686;9.738;2023-04-15T08:28:34;10.50;99.90
316;DHT22;14128;48.686;9.738;2023-04-15T08:31:01;10.60;99.90
316;DHT22;14128;48.686;9.738;2023-04-15T08:33:28;10.60;99.90
316;DHT22;14128;48.686;9.738;2023-04-15T08:35:56;10.80;99.90
316;DHT22;14128;48.686;9.738;2023-04-15T08:38:23;11.00;99.90
316;DHT22;14128;48.686;9.738;2023-04-15T08:40:50;11.20;99.90
316;DHT22;14128;48.686;9.738;2023-04-15T08:43:21;11.40;99.90
316;DHT22;14128;48.686;9.738;2023-04-15T08:45:51;11.70;99.90
316;DHT22;14128;48.686;9.738;2023-04-15T08:48:18;11.80;99.90
316;DHT22;14128;48.686;9.738;2023-04-15T08:50:46;11.70;99.90
316;DHT22;14128;48.686;9.738;2023-04-15T08:53:15;11.90;1.00
316;DHT22;14128;48.686;9.738;2023-04-15T08:55:44;12.10;99.90
316;DHT22;14128;48.686;9.738;2023-04-15T08:58:11;12.30;99.90
316;DHT22;14128;48.686;9.738;2023-04-15T09:00:38;12.50;1.00
316;DHT22;14128;48.686;9.738;2023-04-15T09:03:06;12.70;99.90
316;DHT22;14128;48.686;9.738;2023-04-15T09:05:33;12.90;99.90
316;DHT22;14128;48.686;9.738;2023-04-15T09:08:01;13.00;15.10
316;DHT22;14128;48.686;9.738;2023-04-15T09:10:30;13.30;1.00
316;DHT22;14128;48.686;9.738;2023-04-15T09:12:57;13.60;1.00
316;DHT22;14128;48.686;9.738;2023-04-15T09:15:25;13.80;1.00
316;DHT22;14128;48.686;9.738;2023-04-15T09:17:54;14.30;99.90
316;DHT22;14128;48.686;9.738;2023-04-15T09:20:21;14.30;99.90
316;DHT22;14128;48.686;9.738;2023-04-15T09:22:48;14.30;99.90
316;DHT22;14128;48.686;9.738;2023-04-15T09:25:26;14.50;99.90
316;DHT22;14128;48.686;9.738;2023-04-15T09:27:56;14.60;99.90
316;DHT22;14128;48.686;9.738;2023-04-15T09:30:23;14.60;99.90
316;DHT22;14128;48.686;9.738;2023-04-15T09:32:51;14.80;99.90
316;DHT22;14128;48.686;9.738;2023-04-15T09:35:18;14.80;99.90
316;DHT22;14128;48.686;9.738;2023-04-15T09:37:45;15.00;99.90
316;DHT22;14128;48.686;9.738;2023-04-15T09:40:12;15.20;12.30
316;DHT22;14128;48.686;9.738;2023-04-15T09:42:55;15.40;99.90
316;DHT22;14128;48.686;9.738;2023-04-15T09:45:23;15.50;99.90
316;DHT22;14128;48.686;9.738;2023-04-15T09:47:50;15.40;99.90
316;DHT22;14128;48.686;9.738;2023-04-15T09:50:18;15.30;99.90
316;DHT22;14128;48.686;9.738;2023-04-15T09:52:46;14.90;99.90
316;DHT22;14128;48.686;9.738;2023-04-15T09:55:13;15.30;99.90
316;DHT22;14128;48.686;9.738;2023-04-15T09:57:41;15.60;99.90
316;DHT22;14128;48.686;9.738;2023-04-15T10:00:11;15.90;99.90
316;DHT22;14128;48.686;9.738;2023-04-15T10:02:39;16.10;99.90
316;DHT22;14128;48.686;9.738;2023-04-15T10:05:07;16.30;99.90
316;DHT22;14128;48.686;9.738;2023-04-15T10:07:35;15.90;99.90
316;DHT22;14128;48.686;9.738;2023-04-15T10:10:03;16.20;99.90
316;DHT22;14128;48.686;9.738;2023-04-15T10:12:30;16.40;99.90
316;DHT22;14128;48.686;9.738;2023-04-15T10:15:02;16.50;99.90
316;DHT22;14128;48.686;9.738;2023-04-15T10:17:32;16.60;99.90
316;DHT22;14128;48.686;9.738;2023-04-15T10:20:00;16.70;99.90
316;DHT22;14128;48.686;9.738;2023-04-15T10:22:28;16.30;99.90
316;DHT22;14128;48.686;9.738;2023-04-15T10:24:55;16.10;99.90
316;DHT22;14128;48.686;9.738;2023-04-15T10:27:22;16.40;99.90
316;DHT22;14128;48.686;9.738;2023-04-15T10:29:50;16.60;99.90
316;DHT22;14128;48.686;9.738;2023-04-15T10:32:18;16.40;99.90
316;DHT22;14128;48.686;9.738;2023-04-15T10:34:48;16.20;99.90
316;DHT22;14128;48.686;9.738;2023-04-15T10:37:20;16.50;99.90
316;DHT22;14128;48.686;9.738;2023-04-15T10:39:47;16.40;99.90
316;DHT22;14128;48.686;9.738;2023-04-15T10:42:16;16.30;99.90
316;DHT22;14128;48.686;9.738;2023-04-15T10:44:44;16.40;99.90
316;DHT22;14128;48.686;9.738;2023-04-15T10:47:16;16.30;99.90
316;DHT22;14128;48.686;9.738;2023-04-15T10:49:50;16.10;99.90
316;DHT22;14128;48.686;9.738;2023-04-15T10:52:22;16.10;99.90
316;DHT22;14128;48.686;9.738;2023-04-15T10:55:01;15.70;99.90
316;DHT22;14128;48.686;9.738;2023-04-15T10:57:34;15.50;99.90
316;DHT22;14128;48.686;9.738;2023-04-15T11:00:11;15.40;99.90
316;DHT22;14128;48.686;9.738;2023-04-15T11:02:42;15.50;99.90
316;DHT22;14128;48.686;9.738;2023-04-15T11:05:11;15.80;99.90
316;DHT22;14128;48.686;9.738;2023-04-15T11:07:46;15.50;99.90
316;DHT22;14128;48.686;9.738;2023-04-15T11:10:49;14.80;99.90
316;DHT22;14128;48.686;9.738;2023-04-15T11:13:26;15.20;99.90
316;DHT22;14128;48.686;9.738;2023-04-15T11:16:01;15.10;99.90
316;DHT22;14128;48.686;9.738;2023-04-15T11:18:32;14.70;99.90
316;DHT22;14128;48.686;9.738;2023-04-15T11:21:02;14.50;99.90
316;DHT22;14128;48.686;9.738;2023-04-15T11:23:32;14.50;99.90
316;DHT22;14128;48.686;9.738;2023-04-15T11:26:00;14.40;99.90
316;DHT22;14128;48.686;9.738;2023-04-15T11:28:29;14.30;99.90
316;DHT22;14128;48.686;9.738;2023-04-15T11:30:56;14.00;99.90
316;DHT22;14128;48.686;9.738;2023-04-15T11:33:24;14.10;99.90
316;DHT22;14128;48.686;9.738;2023-04-15T11:35:52;14.20;99.90
316;DHT22;14128;48.686;9.738;2023-04-15T11:38:21;14.40;99.90
316;DHT22;14128;48.686;9.738;2023-04-15T11:40:48;14.40;99.90
316;DHT22;14128;48.686;9.738;2023-04-15T11:43:17;14.50;99.90
316;DHT22;14128;48.686;9.738;2023-04-15T11:45:50;14.80;99.90
316;DHT22;14128;48.686;9.738;2023-04-15T11:48:19;14.70;99.90
316;DHT22;14128;48.686;9.738;2023-04-15T11:50:51;15.10;99.90
316;DHT22;14128;48.686;9.738;2023-04-15T11:53:18;15.00;99.90
316;DHT22;14128;48.686;9.738;2023-04-15T11:55:47;14.90;99.90
316;DHT22;14128;48.686;9.738;2023-04-15T11:58:16;14.70;99.90
316;DHT22;14128;48.686;9.738;2023-04-15T12:00:47;14.90;99.90
316;DHT22;14128;48.686;9.738;2023-04-15T12:03:17;14.90;99.90
316;DHT22;14128;48.686;9.738;2023-04-15T12:06:14;14.50;99.90
316;DHT22;14128;48.686;9.738;2023-04-15T12:09:06;14.40;99.90
316;DHT22;14128;48.686;9.738;2023-04-15T12:11:40;14.20;99.90
316;DHT22;14128;48.686;9.738;2023-04-15T12:14:10;13.90;99.90
316;DHT22;14128;48.686;9.738;2023-04-15T12:16:40;14.10;99.90
316;DHT22;14128;48.686;9.738;2023-04-15T12:19:09;14.10;99.90
316;DHT22;14128;48.686;9.738;2023-04-15T12:21:38;14.50;99.90
316;DHT22;14128;48.686;9.738;2023-04-15T12:24:06;14.60;99.90
316;DHT22;14128;48.686;9.738;2023-04-15T12:26:36;14.50;99.90
316;DHT22;14128;48.686;9.738;2023-04-15T12:29:06;14.40;99.90
316;DHT22;14128;48.686;9.738;2023-04-15T12:31:34;14.30;99.90
316;DHT22;14128;48.686;9.738;2023-04-15T12:34:02;14.30;99.90
316;DHT22;14128;48.686;9.738;2023-04-15T12:36:30;14.40;99.90
316;DHT22;14128;48.686;9.738;2023-04-15T12:39:01;14.80;99.90
316;DHT22;14128;48.686;9.738;2023-04-15T12:41:29;14.80;99.90
316;DHT22;14128;48.686;9.738;2023-04-15T12:43:55;14.70;99.90
316;DHT22;14128;48.686;9.738;2023-04-15T12:46:24;14.50;99.90
316;DHT22;14128;48.686;9.738;2023-04-15T12:48:51;14.30;99.90
316;DHT22;14128;48.686;9.738;2023-04-15T12:51:19;14.20;99.90
316;DHT22;14128;48.686;9.738;2023-04-15T12:53:46;14.10;99.90
316;DHT22;14128;48.686;9.738;2023-04-15T12:56:14;13.90;99.90
316;DHT22;14128;48.686;9.738;2023-04-15T12:58:41;13.40;99.90
316;DHT22;14128;48.686;9.738;2023-04-15T13:01:08;13.10;99.90
316;DHT22;14128;48.686;9.738;2023-04-15T13:03:37;13.00;99.90
316;DHT22;14128;48.686;9.738;2023-04-15T13:06:04;13.10;99.90
316;DHT22;14128;48.686;9.738;2023-04-15T13:08:31;13.00;99.90
316;DHT22;14128;48.686;9.738;2023-04-15T13:10:58;12.90;99.90
316;DHT22;14128;48.686;9.738;2023-04-15T13:13:25;13.00;99.90
316;DHT22;14128;48.686;9.738;2023-04-15T13:15:51;12.90;99.90
316;DHT22;14128;48.686;9.738;2023-04-15T13:18:18;12.80;99.90
316;DHT22;14128;48.686;9.738;2023-04-15T13:20:46;12.50;99.90
316;DHT22;14128;48.686;9.738;2023-04-15T13:23:14;12.10;99.90
316;DHT22;14128;48.686;9.738;2023-04-15T13:25:40;12.10;99.90
316;DHT22;14128;48.686;9.738;2023-04-15T13:28:08;11.80;99.90
316;DHT22;14128;48.686;9.738;2023-04-15T13:30:36;11.70;99.90
316;DHT22;14128;48.686;9.738;2023-04-15T13:33:03;11.50;99.90
316;DHT22;14128;48.686;9.738;2023-04-15T13:35:31;11.50;99.90
316;DHT22;14128;48.686;9.738;2023-04-15T13:37:59;11.60;99.90
316;DHT22;14128;48.686;9.738;2023-04-15T13:40:26;11.40;99.90
316;DHT22;14128;48.686;9.738;2023-04-15T13:42:53;11.30;99.90
316;DHT22;14128;48.686;9.738;2023-04-15T13:45:20;11.30;99.90
316;DHT22;14128;48.686;9.738;2023-04-15T13:47:47;11.20;99.90
316;DHT22;14128;48.686;9.738;2023-04-15T13:50:14;11.20;99.90
316;DHT22;14128;48.686;9.738;2023-04-15T13:52:41;11.10;99.90
316;DHT22;14128;48.686;9.738;2023-04-15T13:55:09;11.10;99.90
316;DHT22;14128;48.686;9.738;2023-04-15T13:57:36;11.00;99.90
316;DHT22;14128;48.686;9.738;2023-04-15T14:00:04;10.90;99.90
316;DHT22;14128;48.686;9.738;2023-04-15T14:02:31;10.90;99.90
316;DHT22;14128;48.686;9.738;2023-04-15T14:04:58;10.90;99.90
316;DHT22;14128;48.686;9.738;2023-04-15T14:07:25;10.90;99.90
316;DHT22;14128;48.686;9.738;2023-04-15T14:09:52;10.90;99.90
316;DHT22;14128;48.686;9.738;2023-04-15T14:12:20;10.80;99.90
316;DHT22;14128;48.686;9.738;2023-04-15T14:14:47;10.80;99.90
316;DHT22;14128;48.686;9.738;2023-04-15T14:17:13;10.80;99.90
316;DHT22;14128;48.686;9.738;2023-04-15T14:19:40;10.90;99.90
316;DHT22;14128;48.686;9.738;2023-04-15T14:22:07;11.00;99.90
316;DHT22;14128;48.686;9.738;2023-04-15T14:24:34;11.20;99.90
316;DHT22;14128;48.686;9.738;2023-04-15T14:27:01;11.40;99.90
316;DHT22;14128;48.686;9.738;2023-04-15T14:29:30;11.50;99.90
316;DHT22;14128;48.686;9.738;2023-04-15T14:31:57;11.70;99.90
316;DHT22;14128;48.686;9.738;2023-04-15T14:34:24;11.80;99.90
316;DHT22;14128;48.686;9.738;2023-04-15T14:36:51;11.90;99.90
316;DHT22;14128;48.686;9.738;2023-04-15T14:39:18;11.90;99.90
316;DHT22;14128;48.686;9.738;2023-04-15T14:41:45;11.80;99.90
316;DHT22;14128;48.686;9.738;2023-04-15T14:44:12;11.70;99.90
316;DHT22;14128;48.686;9.738;2023-04-15T14:46:40;11.70;99.90
316;DHT22;14128;48.686;9.738;2023-04-15T14:49:07;11.70;99.90
316;DHT22;14128;48.686;9.738;2023-04-15T14:51:34;11.70;99.90
316;DHT22;14128;48.686;9.738;2023-04-15T14:54:01;11.60;99.90
316;DHT22;14128;48.686;9.738;2023-04-15T14:56:27;11.40;99.90
316;DHT22;14128;48.686;9.738;2023-04-15T14:58:54;11.50;99.90
316;DHT22;14128;48.686;9.738;2023-04-15T15:01:21;11.50;99.90
316;DHT22;14128;48.686;9.738;2023-04-15T15:03:49;11.50;99.90
316;DHT22;14128;48.686;9.738;2023-04-15T15:06:16;11.50;99.90
316;DHT22;14128;48.686;9.738;2023-04-15T15:08:43;11.40;99.90
316;DHT22;14128;48.686;9.738;2023-04-15T15:11:10;11.40;99.90
316;DHT22;14128;48.686;9.738;2023-04-15T15:13:37;11.30;99.90
316;DHT22;14128;48.686;9.738;2023-04-15T15:16:04;11.10;99.90
316;DHT22;14128;48.686;9.738;2023-04-15T15:18:31;10.90;99.90
316;DHT22;14128;48.686;9.738;2023-04-15T15:20:59;10.90;99.90
316;DHT22;14128;48.686;9.738;2023-04-15T15:23:26;10.90;99.90
316;DHT22;14128;48.686;9.738;2023-04-15T15:25:53;10.80;99.90
316;DHT22;14128;48.686;9.738;2023-04-15T15:28:21;10.80;99.90
316;DHT22;14128;48.686;9.738;2023-04-15T15:30:48;10.80;99.90
316;DHT22;14128;48.686;9.738;2023-04-15T15:33:15;10.80;99.90
316;DHT22;14128;48.686;9.738;2023-04-15T15:35:42;10.90;99.90
316;DHT22;14128;48.686;9.738;2023-04-15T15:38:11;10.90;99.90
316;DHT22;14128;48.686;9.738;2023-04-15T15:40:38;10.70;99.90
316;DHT22;14128;48.686;9.738;2023-04-15T15:43:05;10.60;99.90
316;DHT22;14128;48.686;9.738;2023-04-15T15:45:32;10.60;99.90
316;DHT22;14128;48.686;9.738;2023-04-15T15:47:59;10.60;99.90
316;DHT22;14128;48.686;9.738;2023-04-15T15:50:26;10.50;99.90
316;DHT22;14128;48.686;9.738;2023-04-15T15:52:53;10.50;99.90
316;DHT22;14128;48.686;9.738;2023-04-15T15:55:21;10.50;99.90
316;DHT22;14128;48.686;9.738;2023-04-15T15:57:50;10.50;99.90
316;DHT22;14128;48.686;9.738;2023-04-15T16:00:17;10.50;99.90
316;DHT22;14128;48.686;9.738;2023-04-15T16:02:43;10.40;1.00
316;DHT22;14128;48.686;9.738;2023-04-15T16:05:10;10.30;1.00
316;DHT22;14128;48.686;9.738;2023-04-15T16:07:37;10.20;11.40
316;DHT22;14128;48.686;9.738;2023-04-15T16:10:05;10.10;99.90
316;DHT22;14128;48.686;9.738;2023-04-15T16:12:33;10.00;99.90
316;DHT22;14128;48.686;9.738;2023-04-15T16:15:00;9.90;79.30